Time;durP1;ratioP1;P1;durP2;ratioP2;P2;SDS_P1;SDS_P2;PMS_P1;PMS_P2;Temp;Humidity;BMP_temperature;BMP_pressure;BME280_temperature;BME280_humidity;BME280_pressure;Samples;Min_cycle;Max_cycle;Signal;HPM_P1;HPM_P2
2021/04/12 15:37:01;;;;;;;3.10;1.30;;;14.60;42.60;;;;;;4249590;27;20118;-65
2021/04/12 15:39:09;;;;;;;3.58;1.38;;;13.80;43.20;;;;;;4228331;27;20055;-66
2021/04/12 15:41:14;;;;;;;8.30;1.30;;;14.10;43.60;;;;;;4230322;28;20374;-66
2021/04/12 15:43:21;;;;;;;8.25;2.67;;;14.70;42.20;;;;;;4230487;28;20135;-66
2021/04/12 15:45:28;;;;;;;6.03;2.17;;;15.20;42.30;;;;;;4224582;28;20052;-66
2021/04/12 15:47:32;;;;;;;9.73;4.65;;;15.10;42.10;;;;;;4228980;27;20055;-67
2021/04/12 15:49:37;;;;;;;6.32;1.30;;;15.00;41.70;;;;;;4233929;28;20051;-69
2021/04/12 15:51:42;;;;;;;7.93;2.22;;;14.80;42.50;;;;;;4230686;27;20047;-66
2021/04/12 15:53:48;;;;;;;2.53;1.45;;;15.50;42.80;;;;;;4234774;28;20062;-66
2021/04/12 15:55:55;;;;;;;11.57;1.60;;;16.00;41.40;;;;;;4241901;28;20265;-64
2021/04/12 15:58:20;;;;;;;4.63;1.10;;;16.20;41.80;;;;;;4242904;28;20062;-66
2021/04/12 16:00:25;;;;;;;3.70;1.23;;;15.40;39.80;;;;;;4228087;28;20052;-63
2021/04/12 16:02:28;;;;;;;;;;;15.30;42.80;;;;;;4241541;28;20096;-64
2021/04/12 16:04:37;;;;;;;4.13;1.30;;;14.80;41.90;;;;;;4232642;28;19927;-64
2021/04/12 16:06:42;;;;;;;3.45;1.40;;;14.90;41.80;;;;;;4224857;28;20059;-68
2021/04/12 16:08:54;;;;;;;6.20;1.65;;;14.90;42.10;;;;;;4234606;28;20047;-65
2021/04/12 16:11:27;;;;;;;6.55;1.00;;;14.40;42.20;;;;;;4239123;27;20054;-65
2021/04/12 16:13:39;;;;;;;7.35;1.58;;;14.90;45.30;;;;;;4229787;28;20051;-69
2021/04/12 16:15:52;;;;;;;5.70;1.33;;;14.70;44.00;;;;;;4229957;28;20043;-64
2021/04/12 16:18:01;;;;;;;7.80;1.50;;;14.40;43.60;;;;;;4227041;28;20047;-65
2021/04/12 16:20:10;;;;;;;5.50;1.67;;;14.60;45.50;;;;;;4232952;28;20040;-69
2021/04/12 16:22:20;;;;;;;13.18;8.48;;;14.00;45.10;;;;;;4232054;27;20059;-68
2021/04/12 16:24:33;;;;;;;4.10;1.33;;;14.10;44.60;;;;;;4232018;27;20092;-65
2021/04/12 16:26:41;;;;;;;10.63;1.52;;;14.00;44.00;;;;;;4225552;28;20599;-63
2021/04/12 16:28:50;;;;;;;8.35;1.77;;;14.20;44.40;;;;;;4228801;28;20446;-63
2021/04/12 16:30:57;;;;;;;7.20;1.95;;;14.70;44.40;;;;;;4230979;28;20044;-64
2021/04/12 16:33:03;;;;;;;6.47;1.77;;;14.70;43.70;;;;;;4228748;28;20100;-66
2021/04/12 16:35:09;;;;;;;3.47;1.20;;;14.20;44.40;;;;;;4232289;28;20079;-63
2021/04/12 16:37:18;;;;;;;20.05;3.20;;;14.20;44.90;;;;;;4238566;28;20043;-65
2021/04/12 16:39:26;;;;;;;16.45;3.22;;;14.90;45.80;;;;;;4238435;27;20047;-63
2021/04/12 16:41:37;;;;;;;10.40;2.20;;;14.50;44.70;;;;;;4241534;27;20104;-67
2021/04/12 16:43:52;;;;;;;18.33;2.38;;;14.30;45.80;;;;;;4234678;27;20048;-64
2021/04/12 16:45:58;;;;;;;22.95;2.35;;;13.90;46.80;;;;;;4242278;28;20323;-67
2021/04/12 16:48:10;;;;;;;4.75;1.90;;;14.50;47.30;;;;;;4227667;28;20124;-63
2021/04/12 16:50:38;;;;;;;7.80;2.08;;;14.00;48.40;;;;;;4218743;28;20060;-63
2021/04/12 16:52:46;;;;;;;6.65;2.85;;;13.40;50.60;;;;;;4224042;28;20050;-64
2021/04/12 16:54:58;;;;;;;11.48;2.85;;;13.70;50.60;;;;;;4224126;28;20043;-64
2021/04/12 16:57:09;;;;;;;7.35;2.17;;;13.50;51.50;;;;;;4215850;28;20043;-64
2021/04/12 16:59:32;;;;;;;11.70;3.80;;;12.80;53.60;;;;;;4223110;28;20066;-74
2021/04/12 17:01:41;;;;;;;5.50;2.63;;;13.40;53.10;;;;;;4226473;28;20047;-68
2021/04/12 17:03:53;;;;;;;7.57;1.95;;;13.40;53.80;;;;;;4220191;28;20093;-64
2021/04/12 17:06:08;;;;;;;4.55;2.05;;;13.20;53.50;;;;;;4220708;28;20070;-63
2021/04/12 17:08:17;;;;;;;8.57;3.45;;;13.10;54.40;;;;;;4220150;28;20054;-69
2021/04/12 17:10:49;;;;;;;7.05;1.77;;;13.50;54.30;;;;;;4221823;28;20056;-73
2021/04/12 17:12:59;;;;;;;6.55;1.60;;;13.60;53.80;;;;;;4223975;28;20046;-73
2021/04/12 17:15:07;;;;;;;2.70;0.98;;;13.50;53.30;;;;;;4228710;28;20047;-63
2021/04/12 17:17:17;;;;;;;2.30;1.20;;;13.50;53.20;;;;;;4228422;28;20162;-73
2021/04/12 17:19:25;;;;;;;2.53;1.52;;;13.40;53.10;;;;;;4224877;28;20131;-67
2021/04/12 17:21:37;;;;;;;8.50;4.80;;;13.60;54.00;;;;;;4221298;28;20136;-64
2021/04/12 17:23:47;;;;;;;8.23;4.43;;;13.20;53.70;;;;;;4221830;28;20092;-66
2021/04/12 17:25:58;;;;;;;7.60;3.25;;;13.80;54.80;;;;;;4221938;28;20052;-65
2021/04/12 17:28:05;;;;;;;9.80;4.75;;;14.30;52.60;;;;;;4228076;28;20160;-63
2021/04/12 17:30:15;;;;;;;10.40;6.25;;;14.10;52.20;;;;;;4229643;28;20052;-65
2021/04/12 17:32:21;;;;;;;13.57;7.68;;;14.40;52.40;;;;;;4223961;28;20540;-63
2021/04/12 17:34:34;;;;;;;14.45;5.90;;;15.30;50.20;;;;;;4227255;28;20043;-64
2021/04/12 17:36:46;;;;;;;3.00;1.92;;;15.40;49.30;;;;;;4222972;28;20445;-65
2021/04/12 17:38:50;;;;;;;4.90;1.88;;;14.60;49.10;;;;;;4213188;28;20052;-63
2021/04/12 17:41:16;;;;;;;2.83;1.23;;;14.30;48.50;;;;;;4224011;28;20126;-64
2021/04/12 17:43:23;;;;;;;3.15;1.60;;;13.90;49.80;;;;;;4231949;28;20791;-63
2021/04/12 17:45:30;;;;;;;7.47;1.83;;;13.50;50.90;;;;;;4224881;28;20047;-63
2021/04/12 17:47:41;;;;;;;16.67;2.47;;;14.20;51.90;;;;;;4221329;28;20471;-64
2021/04/12 17:49:46;;;;;;;9.20;1.60;;;14.00;51.10;;;;;;4228153;28;20539;-63
2021/04/12 17:51:51;;;;;;;11.63;2.17;;;13.70;51.40;;;;;;4219723;28;20098;-63
2021/04/12 17:54:01;;;;;;;11.25;2.20;;;13.80;51.60;;;;;;4213067;28;20598;-64
2021/04/12 17:56:12;;;;;;;7.35;2.35;;;13.90;51.30;;;;;;4213041;28;20048;-63
2021/04/12 17:58:18;;;;;;;6.80;1.67;;;14.00;51.80;;;;;;4227484;28;20039;-63
2021/04/12 18:00:26;;;;;;;12.13;1.90;;;14.10;51.60;;;;;;4230216;28;20044;-63
2021/04/12 18:02:32;;;;;;;7.85;1.90;;;14.30;51.80;;;;;;4229161;28;20043;-63
2021/04/12 18:04:35;;;;;;;5.10;2.30;;;14.00;50.00;;;;;;4230059;28;20050;-62
